Terminal Aerodrome Forecast
Issued by NWS Cleveland, OH

Home | Current Version | Previous Version | Graphics & Text | Print | Product List | Glossary Off
Versions: 1 2 3 4 5 6 7 8 9 10 11 12 13 14 15 16 17 18 19

000
FTUS41 KCLE 221600 AAB
TAFCAK
TAF AMD
KCAK 221631Z 2217/2312 20010KT 3SM -RA OVC006 WS020/24045KT
     FM221800 20014G22KT 6SM -RA BR SCT006 BKN025 OVC035
     FM222000 21012KT P6SM VCSH SCT025 OVC040
      TEMPO 2220/2224 5SM -RA BKN025=

USA.gov is the U.S. government's official web portal to all federal, state and local government web resources and services.